createdAt,value
2018-06-30T00:00:18.259Z,19.15
2018-06-30T00:01:18.257Z,19.14
2018-06-30T00:02:18.253Z,19.15
2018-06-30T00:03:18.250Z,19.14
2018-06-30T00:04:18.248Z,19.12
2018-06-30T00:05:18.245Z,18.98
2018-06-30T00:06:18.242Z,18.96
2018-06-30T00:07:18.244Z,18.96
2018-06-30T00:08:18.237Z,18.90
2018-06-30T00:09:18.234Z,18.98
2018-06-30T00:10:18.266Z,18.84
2018-06-30T00:11:18.231Z,18.84
2018-06-30T00:12:18.226Z,18.81
2018-06-30T00:13:18.224Z,18.78
2018-06-30T00:14:18.221Z,18.84
2018-06-30T00:15:18.218Z,18.74
2018-06-30T00:16:18.215Z,18.80
2018-06-30T00:17:18.213Z,18.70
2018-06-30T00:18:18.209Z,18.66
2018-06-30T00:19:18.207Z,18.55
2018-06-30T00:20:18.204Z,18.62
2018-06-30T00:21:18.201Z,18.59
2018-06-30T00:22:18.198Z,18.58
2018-06-30T00:23:18.199Z,18.55
2018-06-30T00:24:18.193Z,18.59
2018-06-30T00:25:18.190Z,18.59
2018-06-30T00:26:18.188Z,18.59
2018-06-30T00:27:18.184Z,18.52
2018-06-30T00:28:18.181Z,18.58
2018-06-30T00:29:18.178Z,18.52
2018-06-30T00:30:18.175Z,18.47
2018-06-30T00:31:18.172Z,18.52
2018-06-30T00:32:18.169Z,18.44
2018-06-30T00:33:18.167Z,18.50
2018-06-30T00:34:18.167Z,18.50
2018-06-30T00:35:18.161Z,18.55
2018-06-30T00:36:18.162Z,18.50
2018-06-30T00:37:18.155Z,18.50
2018-06-30T00:38:18.169Z,18.49
2018-06-30T00:39:18.149Z,18.52
2018-06-30T00:40:18.146Z,18.50
2018-06-30T00:41:18.143Z,18.43
2018-06-30T00:42:18.140Z,18.41
2018-06-30T00:43:18.137Z,18.41
2018-06-30T00:44:18.134Z,18.41
2018-06-30T00:45:18.134Z,18.45
2018-06-30T00:46:18.127Z,18.40
2018-06-30T00:47:18.124Z,18.43
2018-06-30T00:48:18.122Z,18.40
2018-06-30T00:49:18.119Z,18.37
2018-06-30T00:50:18.116Z,18.34
2018-06-30T00:51:18.113Z,18.33
2018-06-30T00:52:18.130Z,18.26
2018-06-30T00:53:18.114Z,18.31
2018-06-30T00:54:18.103Z,18.28
2018-06-30T00:55:18.117Z,18.31
2018-06-30T00:56:18.100Z,18.37
2018-06-30T00:57:18.095Z,18.19
2018-06-30T00:58:18.091Z,18.23
2018-06-30T00:59:18.090Z,18.18
2018-06-30T01:00:18.085Z,18.15
2018-06-30T01:01:18.083Z,18.01
2018-06-30T01:02:18.078Z,17.98
2018-06-30T01:03:18.075Z,18.13
2018-06-30T01:04:18.072Z,17.97
2018-06-30T01:05:18.069Z,17.95
2018-06-30T01:06:18.065Z,17.97
2018-06-30T01:07:18.063Z,18.00
2018-06-30T01:08:18.059Z,17.97
2018-06-30T01:09:18.056Z,17.98
2018-06-30T01:10:18.052Z,17.94
2018-06-30T01:11:18.049Z,17.89
2018-06-30T01:12:18.046Z,17.83
2018-06-30T01:13:18.043Z,17.89
2018-06-30T01:14:18.039Z,17.89
2018-06-30T01:15:18.036Z,17.86
2018-06-30T01:16:18.034Z,17.83
2018-06-30T01:17:18.030Z,17.80
2018-06-30T01:18:18.026Z,17.82
2018-06-30T01:19:18.022Z,17.82
2018-06-30T01:20:18.022Z,17.78
2018-06-30T01:21:18.020Z,17.78
2018-06-30T01:22:18.012Z,17.78
2018-06-30T01:23:18.009Z,17.78
2018-06-30T01:24:18.009Z,17.76
2018-06-30T01:25:18.005Z,17.68
2018-06-30T01:26:18.002Z,17.64
2018-06-30T01:27:17.999Z,17.63
2018-06-30T01:28:17.992Z,17.54
2018-06-30T01:29:17.991Z,17.63
2018-06-30T01:30:18.187Z,17.60
2018-06-30T01:31:17.982Z,17.54
2018-06-30T01:32:17.978Z,17.54
2018-06-30T01:33:17.975Z,17.48
2018-06-30T01:34:17.975Z,17.39
2018-06-30T01:35:17.967Z,17.36
2018-06-30T01:36:17.965Z,17.44
2018-06-30T01:37:17.961Z,17.30
2018-06-30T01:38:17.956Z,17.34
2018-06-30T01:39:17.952Z,17.31
2018-06-30T01:40:17.954Z,17.15
2018-06-30T01:41:17.946Z,17.31
2018-06-30T01:42:17.941Z,17.29
2018-06-30T01:43:17.939Z,17.29
2018-06-30T01:44:17.934Z,17.20
2018-06-30T01:45:17.934Z,17.20
2018-06-30T01:46:17.926Z,17.26
2018-06-30T01:47:17.923Z,17.20
2018-06-30T01:48:17.920Z,17.15
2018-06-30T01:49:17.924Z,17.15
2018-06-30T01:50:17.916Z,17.11
2018-06-30T01:51:17.908Z,17.05
2018-06-30T01:52:18.107Z,17.01
2018-06-30T01:53:17.904Z,17.08
2018-06-30T01:54:17.899Z,17.01
2018-06-30T01:55:17.893Z,16.94
2018-06-30T01:56:17.889Z,17.04
2018-06-30T01:57:17.889Z,17.05
2018-06-30T01:58:17.880Z,17.01
2018-06-30T01:59:17.882Z,17.01
2018-06-30T02:00:17.874Z,16.96
2018-06-30T02:01:17.873Z,16.93
2018-06-30T02:02:17.866Z,17.01
2018-06-30T02:03:17.862Z,16.86
2018-06-30T02:04:17.858Z,16.86
2018-06-30T02:05:17.859Z,16.87
2018-06-30T02:06:17.850Z,16.83
2018-06-30T02:07:17.847Z,16.84
2018-06-30T02:08:17.842Z,16.84
2018-06-30T02:09:17.845Z,16.81
2018-06-30T02:10:17.835Z,16.78
2018-06-30T02:11:17.839Z,16.71
2018-06-30T02:12:17.826Z,16.71
2018-06-30T02:13:17.822Z,16.69
2018-06-30T02:14:17.818Z,16.68
2018-06-30T02:15:17.814Z,16.69
2018-06-30T02:16:17.810Z,16.66
2018-06-30T02:17:17.806Z,16.69
2018-06-30T02:18:17.801Z,16.69
2018-06-30T02:19:17.798Z,16.66
2018-06-30T02:20:17.793Z,16.60
2018-06-30T02:21:17.790Z,16.57
2018-06-30T02:22:17.785Z,16.60
2018-06-30T02:23:17.782Z,16.61
2018-06-30T02:24:17.779Z,16.50
2018-06-30T02:25:17.775Z,16.47
2018-06-30T02:26:17.769Z,16.47
2018-06-30T02:27:17.765Z,16.47
2018-06-30T02:28:17.813Z,16.46
2018-06-30T02:29:17.757Z,16.41
2018-06-30T02:30:17.752Z,16.43
2018-06-30T02:31:17.751Z,16.51
2018-06-30T02:32:17.745Z,16.42
2018-06-30T02:33:17.745Z,16.38
2018-06-30T02:34:17.738Z,16.43
2018-06-30T02:35:17.732Z,16.42
2018-06-30T02:36:17.728Z,16.36
2018-06-30T02:37:17.724Z,16.36
2018-06-30T02:38:17.718Z,16.32
2018-06-30T02:39:17.715Z,16.26
2018-06-30T02:40:17.710Z,16.26
2018-06-30T02:41:17.707Z,16.23
2018-06-30T02:42:17.702Z,16.29
2018-06-30T02:43:17.697Z,16.28
2018-06-30T02:44:17.693Z,16.24
2018-06-30T02:45:17.690Z,16.20
2018-06-30T02:46:17.684Z,16.31
2018-06-30T02:47:17.886Z,16.24
2018-06-30T02:48:17.676Z,16.26
2018-06-30T02:49:17.672Z,16.20
2018-06-30T02:50:17.668Z,16.29
2018-06-30T02:51:17.663Z,16.28
2018-06-30T02:52:17.659Z,16.21
2018-06-30T02:53:17.661Z,16.23
2018-06-30T02:54:17.649Z,16.29
2018-06-30T02:55:17.648Z,16.23
2018-06-30T02:56:17.642Z,16.20
2018-06-30T02:57:17.642Z,16.21
2018-06-30T02:58:17.635Z,16.12
2018-06-30T02:59:17.627Z,16.04
2018-06-30T03:00:17.624Z,16.15
2018-06-30T03:01:17.822Z,16.13
2018-06-30T03:02:17.614Z,16.09
2018-06-30T03:03:17.611Z,16.09
2018-06-30T03:04:17.607Z,16.08
2018-06-30T03:05:17.602Z,16.09
2018-06-30T03:06:17.597Z,16.08
2018-06-30T03:07:17.797Z,16.15
2018-06-30T03:08:17.592Z,16.08
2018-06-30T03:09:17.585Z,16.15
2018-06-30T03:10:17.581Z,16.05
2018-06-30T03:11:17.581Z,16.15
2018-06-30T03:12:17.572Z,16.09
2018-06-30T03:13:17.568Z,16.04
2018-06-30T03:14:17.562Z,16.08
2018-06-30T03:15:17.558Z,16.16
2018-06-30T03:16:17.555Z,16.09
2018-06-30T03:17:17.551Z,16.15
2018-06-30T03:18:17.547Z,16.10
2018-06-30T03:19:17.546Z,16.13
2018-06-30T03:20:17.537Z,16.05
2018-06-30T03:21:17.537Z,16.10
2018-06-30T03:22:17.527Z,16.08
2018-06-30T03:23:17.524Z,16.12
2018-06-30T03:24:17.519Z,16.16
2018-06-30T03:25:17.514Z,16.09
2018-06-30T03:26:17.512Z,16.10
2018-06-30T03:27:17.505Z,16.09
2018-06-30T03:28:17.505Z,16.13
2018-06-30T03:29:17.497Z,16.01
2018-06-30T03:30:17.491Z,16.00
2018-06-30T03:31:17.489Z,15.98
2018-06-30T03:32:17.488Z,16.04
2018-06-30T03:33:17.478Z,15.94
2018-06-30T03:34:17.475Z,15.90
2018-06-30T03:35:17.469Z,15.95
2018-06-30T03:36:17.468Z,15.98
2018-06-30T03:37:17.464Z,15.92
2018-06-30T03:39:17.451Z,15.95
2018-06-30T03:40:17.453Z,15.88
2018-06-30T03:41:17.443Z,15.98
2018-06-30T03:42:17.440Z,15.95
2018-06-30T03:43:17.436Z,15.95
2018-06-30T03:44:17.430Z,15.95
2018-06-30T03:45:17.425Z,15.90
2018-06-30T03:46:17.495Z,15.91
2018-06-30T03:47:17.419Z,15.83
2018-06-30T03:48:17.411Z,15.90
2018-06-30T03:49:17.410Z,15.80
2018-06-30T03:50:17.402Z,15.91
2018-06-30T03:51:17.399Z,15.88
2018-06-30T03:52:17.395Z,15.92
2018-06-30T03:53:17.393Z,15.94
2018-06-30T03:54:17.383Z,15.90
2018-06-30T03:55:17.379Z,15.88
2018-06-30T03:56:17.375Z,15.88
2018-06-30T03:57:17.370Z,15.90
2018-06-30T03:58:17.368Z,15.86
2018-06-30T03:59:17.362Z,15.90
2018-06-30T04:00:17.356Z,15.86
2018-06-30T04:01:17.352Z,15.83
2018-06-30T04:02:17.347Z,15.98
2018-06-30T04:03:17.345Z,15.98
2018-06-30T04:04:17.338Z,15.97
2018-06-30T04:05:17.337Z,15.94
2018-06-30T04:06:17.329Z,15.98
2018-06-30T04:07:17.327Z,15.97
2018-06-30T04:08:17.324Z,16.00
2018-06-30T04:09:17.321Z,16.00
2018-06-30T04:10:17.310Z,16.04
2018-06-30T04:11:17.306Z,16.01
2018-06-30T04:12:17.302Z,16.12
2018-06-30T04:13:17.297Z,16.04
2018-06-30T04:14:17.294Z,16.04
2018-06-30T04:15:17.292Z,16.09
2018-06-30T04:16:17.288Z,16.04
2018-06-30T04:17:17.281Z,16.10
2018-06-30T04:18:17.274Z,16.09
2018-06-30T04:19:17.272Z,16.10
2018-06-30T04:20:17.269Z,16.09
2018-06-30T04:21:17.262Z,16.09
2018-06-30T04:22:17.257Z,16.12
2018-06-30T04:23:17.254Z,16.13
2018-06-30T04:24:17.253Z,16.28
2018-06-30T04:25:17.248Z,16.21
2018-06-30T04:26:17.239Z,16.20
2018-06-30T04:27:17.235Z,16.20
2018-06-30T04:28:17.232Z,16.28
2018-06-30T04:29:17.227Z,16.26
2018-06-30T04:30:17.222Z,16.24
2018-06-30T04:31:17.219Z,16.26
2018-06-30T04:32:17.214Z,16.36
2018-06-30T04:33:17.210Z,16.36
2018-06-30T04:34:17.205Z,16.41
2018-06-30T04:35:17.200Z,16.38
2018-06-30T04:36:17.197Z,16.41
2018-06-30T04:37:17.193Z,16.42
2018-06-30T04:38:17.187Z,16.51
2018-06-30T04:39:17.190Z,16.43
2018-06-30T04:40:17.382Z,16.46
2018-06-30T04:41:17.176Z,16.49
2018-06-30T04:42:17.172Z,16.54
2018-06-30T04:43:17.178Z,16.51
2018-06-30T04:44:17.277Z,16.49
2018-06-30T04:45:17.181Z,16.57
2018-06-30T04:46:17.154Z,16.65
2018-06-30T04:47:17.150Z,16.66
2018-06-30T04:48:17.146Z,16.65
2018-06-30T04:49:17.143Z,16.71
2018-06-30T04:50:17.339Z,16.74
2018-06-30T04:51:17.134Z,16.69
2018-06-30T04:52:17.130Z,16.71
2018-06-30T04:53:17.329Z,16.79
2018-06-30T04:54:17.122Z,16.81
2018-06-30T04:55:17.117Z,16.87
2018-06-30T04:56:17.119Z,16.84
2018-06-30T04:57:17.114Z,16.84
2018-06-30T04:58:17.108Z,16.91
2018-06-30T04:59:17.104Z,17.01
2018-06-30T05:00:17.103Z,16.93
2018-06-30T05:01:17.100Z,16.94
2018-06-30T05:02:17.092Z,16.97
2018-06-30T05:03:17.089Z,16.96
2018-06-30T05:04:17.087Z,17.08
2018-06-30T05:05:17.080Z,17.11
2018-06-30T05:06:17.075Z,17.14
2018-06-30T05:07:17.072Z,17.16
2018-06-30T05:08:17.066Z,17.22
2018-06-30T05:09:17.067Z,17.22
2018-06-30T05:10:17.059Z,17.12
2018-06-30T05:11:17.056Z,17.15
2018-06-30T05:12:17.052Z,17.29
2018-06-30T05:13:17.049Z,17.38
2018-06-30T05:14:17.246Z,17.41
2018-06-30T05:15:17.249Z,17.44
2018-06-30T05:16:17.037Z,17.36
2018-06-30T05:17:17.034Z,17.44
2018-06-30T05:18:17.030Z,17.45
2018-06-30T05:19:17.026Z,17.54
2018-06-30T05:20:17.023Z,17.60
2018-06-30T05:21:17.020Z,17.57
2018-06-30T05:22:17.015Z,17.59
2018-06-30T05:23:17.012Z,17.71
2018-06-30T05:24:17.014Z,17.72
2018-06-30T05:25:17.008Z,17.78
2018-06-30T05:26:17.013Z,17.87
2018-06-30T05:27:16.999Z,17.89
2018-06-30T05:28:16.996Z,17.92
2018-06-30T05:29:16.994Z,17.89
2018-06-30T05:30:16.990Z,18.03
2018-06-30T05:31:16.985Z,17.97
2018-06-30T05:32:16.987Z,18.07
2018-06-30T05:33:17.004Z,18.08
2018-06-30T05:35:16.975Z,18.13
2018-06-30T05:36:16.969Z,18.13
2018-06-30T05:37:16.970Z,18.16
2018-06-30T05:38:16.962Z,18.23
2018-06-30T05:39:16.959Z,18.22
2018-06-30T05:40:16.963Z,18.19
2018-06-30T05:41:17.053Z,18.22
2018-06-30T05:42:16.951Z,18.22
2018-06-30T05:43:16.952Z,18.25
2018-06-30T05:44:16.944Z,18.22
2018-06-30T05:45:16.941Z,18.26
2018-06-30T05:46:16.938Z,18.28
2018-06-30T05:47:16.938Z,18.34
2018-06-30T05:48:16.937Z,18.37
2018-06-30T05:49:16.934Z,18.35
2018-06-30T05:50:16.925Z,18.44
2018-06-30T05:51:16.926Z,18.44
2018-06-30T05:52:16.919Z,18.49
2018-06-30T05:53:16.963Z,18.47
2018-06-30T05:54:16.914Z,18.56
2018-06-30T05:55:16.916Z,18.60
2018-06-30T05:56:16.911Z,18.73
2018-06-30T05:57:16.906Z,18.66
2018-06-30T05:58:16.907Z,18.81
2018-06-30T05:59:16.925Z,18.74
2018-06-30T06:00:16.897Z,18.81
2018-06-30T06:01:16.893Z,18.81
2018-06-30T06:02:16.891Z,18.80
2018-06-30T06:03:16.886Z,18.86
2018-06-30T06:04:16.882Z,18.88
2018-06-30T06:05:16.880Z,18.88
2018-06-30T06:06:16.877Z,18.88
2018-06-30T06:07:16.874Z,18.90
2018-06-30T06:08:16.876Z,18.92
2018-06-30T06:09:16.873Z,18.93
2018-06-30T06:10:16.869Z,18.95
2018-06-30T06:11:16.866Z,19.11
2018-06-30T06:12:16.861Z,19.19
2018-06-30T06:13:16.860Z,19.27
2018-06-30T06:14:16.860Z,19.24
2018-06-30T06:15:16.858Z,19.30
2018-06-30T06:16:16.852Z,19.31
2018-06-30T06:17:16.848Z,19.34
2018-06-30T06:18:16.845Z,19.33
2018-06-30T06:19:16.842Z,19.41
2018-06-30T06:20:16.841Z,19.49
2018-06-30T06:21:16.909Z,19.47
2018-06-30T06:22:16.835Z,19.49
2018-06-30T06:23:16.833Z,19.51
2018-06-30T06:24:16.830Z,19.41
2018-06-30T06:25:16.828Z,19.52
2018-06-30T06:26:16.825Z,19.67
2018-06-30T06:27:16.824Z,19.66
2018-06-30T06:28:16.821Z,19.63
2018-06-30T06:29:16.825Z,19.69
2018-06-30T06:30:16.821Z,19.73
2018-06-30T06:31:16.817Z,19.73
2018-06-30T06:32:16.816Z,19.73
2018-06-30T06:33:16.810Z,19.88
2018-06-30T06:34:16.807Z,19.89
2018-06-30T06:35:16.805Z,19.91
2018-06-30T06:36:16.805Z,20.07
2018-06-30T06:37:16.801Z,19.99
2018-06-30T06:38:16.799Z,20.16
2018-06-30T06:39:16.797Z,20.07
2018-06-30T06:40:16.799Z,20.25
2018-06-30T06:41:16.794Z,20.32
2018-06-30T06:42:16.798Z,20.29
2018-06-30T06:43:16.789Z,20.43
2018-06-30T06:44:16.790Z,20.44
2018-06-30T06:45:16.786Z,20.56
2018-06-30T06:46:16.783Z,20.62
2018-06-30T06:47:16.782Z,20.75
2018-06-30T06:48:16.780Z,20.85
2018-06-30T06:49:16.779Z,20.81
2018-06-30T06:50:16.780Z,20.92
2018-06-30T06:51:16.775Z,20.88
2018-06-30T06:52:16.774Z,20.87
2018-06-30T06:53:16.772Z,21.05
2018-06-30T06:54:16.773Z,21.07
2018-06-30T06:55:16.770Z,21.12
2018-06-30T06:56:16.800Z,21.32
2018-06-30T06:57:16.767Z,21.35
2018-06-30T06:58:16.766Z,21.36
2018-06-30T06:59:16.766Z,21.42
2018-06-30T07:00:16.777Z,21.48
2018-06-30T07:01:16.763Z,21.55
2018-06-30T07:02:16.763Z,21.69
2018-06-30T07:03:16.963Z,21.82
2018-06-30T07:04:16.792Z,21.77
2018-06-30T07:05:16.764Z,21.82
2018-06-30T07:06:16.757Z,21.95
2018-06-30T07:07:16.760Z,22.10
2018-06-30T07:08:16.763Z,22.10
2018-06-30T07:09:16.758Z,22.07
2018-06-30T07:10:16.754Z,22.20
2018-06-30T07:12:16.754Z,22.41
2018-06-30T07:13:16.754Z,22.44
2018-06-30T07:15:16.960Z,22.62
2018-06-30T07:16:16.755Z,22.57
2018-06-30T07:17:16.756Z,22.73
2018-06-30T07:18:16.957Z,22.84
2018-06-30T07:19:16.810Z,22.85
2018-06-30T07:20:16.762Z,22.91
2018-06-30T07:21:16.759Z,22.98
2018-06-30T07:22:16.761Z,22.93
2018-06-30T07:23:16.964Z,22.96
2018-06-30T07:24:16.764Z,23.02
2018-06-30T07:25:16.767Z,23.06
2018-06-30T07:26:16.769Z,23.27
2018-06-30T07:27:16.773Z,23.37
2018-06-30T07:28:16.773Z,23.47
2018-06-30T07:29:16.980Z,23.47
2018-06-30T07:30:16.795Z,23.55
2018-06-30T07:31:16.895Z,23.55
2018-06-30T07:32:16.787Z,23.56
2018-06-30T07:33:16.808Z,23.51
2018-06-30T07:34:16.789Z,23.55
2018-06-30T07:35:16.792Z,23.77
2018-06-30T07:36:16.795Z,23.83
2018-06-30T07:37:16.807Z,23.84
2018-06-30T07:38:16.806Z,24.02
2018-06-30T07:39:16.805Z,23.96
2018-06-30T07:40:16.810Z,23.99
2018-06-30T07:41:16.822Z,24.20
2018-06-30T07:42:16.819Z,24.38
2018-06-30T07:43:16.852Z,24.43
2018-06-30T07:44:17.032Z,24.57
2018-06-30T07:45:16.837Z,24.81
2018-06-30T07:46:16.846Z,24.98
2018-06-30T07:47:16.854Z,25.11
2018-06-30T07:48:16.870Z,25.10
2018-06-30T07:49:16.867Z,25.18
2018-06-30T07:50:16.919Z,25.46
2018-06-30T07:51:16.882Z,25.54
2018-06-30T07:52:16.893Z,25.73
2018-06-30T07:53:16.904Z,25.87
2018-06-30T07:54:16.910Z,25.80
2018-06-30T07:55:16.921Z,25.88
2018-06-30T07:56:16.931Z,26.00
2018-06-30T07:57:16.940Z,26.02
2018-06-30T07:58:16.951Z,26.09
2018-06-30T07:59:16.961Z,26.23
2018-06-30T08:00:16.975Z,26.02
2018-06-30T08:01:16.982Z,26.15
2018-06-30T08:02:16.993Z,26.25
2018-06-30T08:03:17.004Z,26.21
2018-06-30T08:04:17.018Z,26.36
2018-06-30T08:05:17.031Z,26.68
2018-06-30T08:06:17.045Z,26.85
2018-06-30T08:07:17.082Z,26.83
2018-06-30T08:08:17.065Z,26.73
2018-06-30T08:09:17.076Z,26.59
2018-06-30T08:10:17.087Z,26.51
2018-06-30T08:11:17.103Z,26.63
2018-06-30T08:12:17.113Z,26.70
2018-06-30T08:13:17.133Z,26.84
2018-06-30T08:14:17.137Z,27.05
2018-06-30T08:15:17.149Z,27.18
2018-06-30T08:16:17.162Z,27.27
2018-06-30T08:17:17.181Z,27.21
2018-06-30T08:18:17.392Z,27.18
2018-06-30T08:19:17.210Z,27.37
2018-06-30T08:20:17.214Z,27.32
2018-06-30T08:21:17.341Z,27.49
2018-06-30T08:22:17.240Z,27.55
2018-06-30T08:23:17.456Z,27.71
2018-06-30T08:24:17.267Z,27.87
2018-06-30T08:25:17.281Z,27.86
2018-06-30T08:26:17.299Z,27.78
2018-06-30T08:27:17.307Z,27.60
2018-06-30T08:28:17.323Z,27.52
2018-06-30T08:29:17.335Z,27.70
2018-06-30T08:30:17.348Z,27.70
2018-06-30T08:31:17.362Z,27.71
2018-06-30T08:32:17.377Z,27.67
2018-06-30T08:33:17.392Z,27.65
2018-06-30T08:34:17.405Z,27.86
2018-06-30T08:35:17.419Z,27.83
2018-06-30T08:36:17.507Z,27.93
2018-06-30T08:37:17.448Z,27.96
2018-06-30T08:38:17.462Z,27.95
2018-06-30T08:40:17.497Z,27.89
2018-06-30T08:41:17.509Z,27.87
2018-06-30T08:42:17.526Z,27.86
2018-06-30T08:43:17.536Z,27.75
2018-06-30T08:44:17.555Z,27.74
2018-06-30T08:45:17.570Z,27.75
2018-06-30T08:46:17.580Z,27.95
2018-06-30T08:47:17.598Z,28.20
2018-06-30T08:48:17.610Z,28.44
2018-06-30T08:49:17.625Z,28.70
2018-06-30T08:50:17.640Z,28.81
2018-06-30T08:51:17.659Z,28.97
2018-06-30T08:52:17.675Z,28.88
2018-06-30T08:53:17.691Z,29.04
2018-06-30T08:54:17.710Z,29.13
2018-06-30T08:55:17.976Z,29.27
2018-06-30T08:56:17.733Z,29.27
2018-06-30T08:57:17.952Z,29.26
2018-06-30T08:58:17.766Z,29.16
2018-06-30T08:59:17.785Z,28.86
2018-06-30T09:00:17.796Z,28.85
2018-06-30T09:01:17.812Z,28.93
2018-06-30T09:02:17.831Z,29.08
2018-06-30T09:03:17.843Z,29.22
2018-06-30T09:04:17.865Z,29.42
2018-06-30T09:05:17.879Z,29.44
2018-06-30T09:07:17.910Z,29.41
2018-06-30T09:08:17.925Z,29.22
2018-06-30T09:09:17.941Z,29.22
2018-06-30T09:10:17.965Z,29.07
2018-06-30T09:11:17.973Z,29.36
2018-06-30T09:12:18.018Z,29.63
2018-06-30T09:13:18.009Z,29.71
2018-06-30T09:14:18.023Z,29.88
2018-06-30T09:15:18.040Z,29.90
2018-06-30T09:16:18.164Z,29.90
2018-06-30T09:17:18.079Z,29.82
2018-06-30T09:18:18.089Z,29.73
2018-06-30T09:19:18.108Z,30.00
2018-06-30T09:20:18.196Z,30.06
2018-06-30T09:21:18.141Z,30.39
2018-06-30T09:22:18.162Z,30.65
2018-06-30T09:23:18.174Z,30.81
2018-06-30T09:24:18.399Z,31.05
2018-06-30T09:25:18.212Z,31.09
2018-06-30T09:26:18.433Z,31.17
2018-06-30T09:27:18.246Z,31.22
2018-06-30T09:28:18.261Z,31.29
2018-06-30T09:29:18.288Z,31.24
2018-06-30T09:30:18.296Z,31.24
2018-06-30T09:31:18.313Z,31.25
2018-06-30T09:32:18.331Z,31.40
2018-06-30T09:33:18.350Z,31.59
2018-06-30T09:34:18.366Z,31.18
2018-06-30T09:35:18.388Z,30.92
2018-06-30T09:36:18.403Z,30.91
2018-06-30T09:37:18.424Z,30.66
2018-06-30T09:38:18.440Z,30.65
2018-06-30T09:39:18.456Z,30.73
2018-06-30T09:40:18.476Z,30.88
2018-06-30T09:41:18.492Z,31.02
2018-06-30T09:42:18.513Z,31.18
2018-06-30T09:43:18.527Z,31.25
2018-06-30T09:44:18.612Z,31.34
2018-06-30T09:45:18.564Z,31.27
2018-06-30T09:46:18.581Z,31.03
2018-06-30T09:47:18.603Z,31.02
2018-06-30T09:48:18.622Z,31.14
2018-06-30T09:49:18.637Z,31.21
2018-06-30T09:50:18.655Z,31.22
2018-06-30T09:51:18.673Z,31.29
2018-06-30T09:52:18.700Z,31.55
2018-06-30T09:53:18.711Z,31.76
2018-06-30T09:54:18.729Z,31.90
2018-06-30T09:55:18.755Z,32.14
2018-06-30T09:56:18.970Z,32.31
2018-06-30T09:57:18.784Z,32.37
2018-06-30T09:58:18.804Z,32.40
2018-06-30T09:59:18.823Z,32.48
2018-06-30T10:00:18.842Z,32.65
2018-06-30T10:01:18.862Z,32.49
2018-06-30T10:02:18.883Z,32.49
2018-06-30T10:03:18.896Z,32.30
2018-06-30T10:04:18.918Z,32.45
2018-06-30T10:05:18.938Z,32.64
2018-06-30T10:06:18.953Z,32.31
2018-06-30T10:07:18.971Z,32.09
2018-06-30T10:08:18.991Z,32.15
2018-06-30T10:09:19.013Z,32.19
2018-06-30T10:10:19.028Z,32.34
2018-06-30T10:11:19.047Z,32.21
2018-06-30T10:12:19.069Z,32.18
2018-06-30T10:13:19.089Z,32.15
2018-06-30T10:14:19.106Z,32.16
2018-06-30T10:15:19.126Z,32.26
2018-06-30T10:16:19.148Z,32.27
2018-06-30T10:17:19.163Z,32.45
2018-06-30T10:18:19.186Z,32.53
2018-06-30T10:19:19.263Z,32.53
2018-06-30T10:20:19.224Z,32.63
2018-06-30T10:21:19.305Z,32.56
2018-06-30T10:22:19.263Z,32.64
2018-06-30T10:23:19.283Z,32.64
2018-06-30T10:24:19.298Z,32.45
2018-06-30T10:25:19.321Z,32.43
2018-06-30T10:26:19.340Z,32.53
2018-06-30T10:27:19.358Z,32.71
2018-06-30T10:28:19.375Z,33.07
2018-06-30T10:29:19.395Z,33.30
2018-06-30T10:30:19.417Z,33.42
2018-06-30T10:31:19.446Z,33.42
2018-06-30T10:32:19.453Z,33.37
2018-06-30T10:33:19.473Z,33.05
2018-06-30T10:34:19.494Z,33.14
2018-06-30T10:35:19.513Z,33.12
2018-06-30T10:36:19.532Z,32.96
2018-06-30T10:37:19.558Z,32.86
2018-06-30T10:38:19.574Z,32.49
2018-06-30T10:39:19.592Z,32.29
2018-06-30T10:40:19.613Z,32.26
2018-06-30T10:41:19.630Z,32.34
2018-06-30T10:42:19.669Z,32.16
2018-06-30T10:43:19.664Z,32.43
2018-06-30T10:44:19.685Z,32.89
2018-06-30T10:45:19.706Z,33.19
2018-06-30T10:46:19.720Z,33.46
2018-06-30T10:47:19.739Z,33.49
2018-06-30T10:48:19.760Z,33.50
2018-06-30T10:49:19.778Z,33.62
2018-06-30T10:50:19.796Z,33.89
2018-06-30T10:51:19.819Z,33.80
2018-06-30T10:52:19.841Z,33.80
2018-06-30T10:53:19.861Z,34.02
2018-06-30T10:54:19.882Z,34.18
2018-06-30T10:55:19.905Z,34.01
2018-06-30T10:56:19.915Z,33.81
2018-06-30T10:57:19.936Z,33.71
2018-06-30T10:58:19.953Z,33.61
2018-06-30T10:59:19.973Z,33.79
2018-06-30T11:00:20.126Z,34.17
2018-06-30T11:01:20.215Z,34.23
2018-06-30T11:02:20.033Z,34.02
2018-06-30T11:03:20.056Z,33.81
2018-06-30T11:04:20.209Z,33.80
2018-06-30T11:05:20.101Z,33.68
2018-06-30T11:06:20.111Z,34.03
2018-06-30T11:07:20.131Z,34.08
2018-06-30T11:08:20.150Z,33.90
2018-06-30T11:09:20.169Z,33.69
2018-06-30T11:10:20.393Z,33.45
2018-06-30T11:11:20.207Z,33.37
2018-06-30T11:12:20.227Z,33.52
2018-06-30T11:13:20.246Z,33.55
2018-06-30T11:14:20.268Z,33.57
2018-06-30T11:15:20.484Z,33.52
2018-06-30T11:16:20.301Z,33.64
2018-06-30T11:17:20.320Z,33.80
2018-06-30T11:18:20.338Z,33.90
2018-06-30T11:19:20.361Z,33.84
2018-06-30T11:20:20.377Z,33.90
2018-06-30T11:21:20.394Z,34.10
2018-06-30T11:22:20.668Z,34.32
2018-06-30T11:23:20.431Z,34.25
2018-06-30T11:24:20.450Z,34.21
2018-06-30T11:25:20.469Z,34.43
2018-06-30T11:26:20.488Z,33.94
2018-06-30T11:27:20.507Z,33.84
2018-06-30T11:28:20.527Z,34.08
2018-06-30T11:29:20.549Z,33.98
2018-06-30T11:30:20.569Z,33.69
2018-06-30T11:31:20.584Z,33.95
2018-06-30T11:32:20.603Z,34.13
2018-06-30T11:33:20.622Z,34.57
2018-06-30T11:34:20.641Z,34.86
2018-06-30T11:35:20.663Z,34.88
2018-06-30T11:37:20.700Z,34.66
2018-06-30T11:38:20.725Z,33.98
2018-06-30T11:39:20.742Z,34.01
2018-06-30T11:40:20.758Z,33.62
2018-06-30T11:41:20.779Z,33.87
2018-06-30T11:42:20.796Z,34.18
2018-06-30T11:43:20.822Z,34.10
2018-06-30T11:44:20.836Z,34.45
2018-06-30T11:45:20.864Z,34.50
2018-06-30T11:46:20.876Z,34.50
2018-06-30T11:47:20.900Z,34.40
2018-06-30T11:48:20.912Z,34.45
2018-06-30T11:49:21.138Z,34.55
2018-06-30T11:50:20.974Z,34.32
2018-06-30T11:51:20.969Z,34.51
2018-06-30T11:52:20.988Z,34.58
2018-06-30T11:53:21.008Z,34.71
2018-06-30T11:54:21.029Z,34.86
2018-06-30T11:55:21.046Z,34.89
2018-06-30T11:56:21.064Z,34.77
2018-06-30T11:58:21.101Z,34.33
2018-06-30T11:59:21.125Z,34.40
2018-06-30T12:00:21.141Z,34.64
2018-06-30T12:01:21.161Z,34.70
2018-06-30T12:02:21.177Z,34.81
2018-06-30T12:03:21.233Z,34.96
2018-06-30T12:04:21.215Z,34.54
2018-06-30T12:05:21.234Z,34.62
2018-06-30T12:06:21.254Z,34.85
2018-06-30T12:07:21.473Z,34.86
2018-06-30T12:08:21.290Z,34.95
2018-06-30T12:09:21.397Z,34.89
2018-06-30T12:10:21.330Z,34.93
2018-06-30T12:11:21.346Z,34.99
2018-06-30T12:12:21.369Z,35.05
2018-06-30T12:13:21.383Z,35.27
2018-06-30T12:14:21.404Z,35.49
2018-06-30T12:15:21.625Z,35.55
2018-06-30T12:16:21.445Z,35.33
2018-06-30T12:17:21.459Z,35.08
2018-06-30T12:18:21.476Z,34.96
2018-06-30T12:19:21.497Z,34.85
2018-06-30T12:20:21.513Z,34.88
2018-06-30T12:21:21.532Z,34.51
2018-06-30T12:22:21.553Z,34.20
2018-06-30T12:23:21.567Z,34.13
2018-06-30T12:24:21.585Z,34.45
2018-06-30T12:25:21.608Z,34.71
2018-06-30T12:26:21.625Z,34.75
2018-06-30T12:27:21.841Z,34.99
2018-06-30T12:28:21.658Z,34.96
2018-06-30T12:29:21.676Z,35.26
2018-06-30T12:30:21.703Z,35.36
2018-06-30T12:31:21.714Z,35.73
2018-06-30T12:32:21.810Z,35.88
2018-06-30T12:33:21.950Z,36.01
2018-06-30T12:34:21.771Z,36.08
2018-06-30T12:35:21.783Z,35.53
2018-06-30T12:36:21.808Z,35.45
2018-06-30T12:37:21.819Z,35.71
2018-06-30T12:38:21.836Z,35.31
2018-06-30T12:39:21.856Z,35.18
2018-06-30T12:40:21.872Z,35.30
2018-06-30T12:41:21.890Z,35.52
2018-06-30T12:42:21.908Z,35.63
2018-06-30T12:43:21.924Z,35.83
2018-06-30T12:44:21.941Z,36.04
2018-06-30T12:45:21.961Z,36.08
2018-06-30T12:46:21.974Z,35.80
2018-06-30T12:47:22.040Z,35.95
2018-06-30T12:48:22.010Z,35.86
2018-06-30T12:49:22.026Z,35.56
2018-06-30T12:50:22.042Z,35.78
2018-06-30T12:51:22.067Z,35.73
2018-06-30T12:52:22.278Z,35.49
2018-06-30T12:53:22.096Z,35.42
2018-06-30T12:54:22.159Z,35.14
2018-06-30T12:55:22.127Z,34.95
2018-06-30T12:56:22.143Z,34.58
2018-06-30T12:57:22.159Z,34.42
2018-06-30T12:58:22.175Z,34.42
2018-06-30T12:59:22.191Z,34.67
2018-06-30T13:00:22.212Z,34.85